Time;durP1;ratioP1;P1;durP2;ratioP2;P2;SDS_P1;SDS_P2;PMS_P1;PMS_P2;Temp;Humidity;BMP_temperature;BMP_pressure;BME280_temperature;BME280_humidity;BME280_pressure;Samples;Min_cycle;Max_cycle;Signal;HPM_P1;HPM_P2
2023/03/09 00:01:56;;;;;;;70.15;28.48;;;;;;;3.34;100.00;96626.38;5088007;28;20031;-59
2023/03/09 00:04:22;;;;;;;68.38;30.60;;;;;;;3.35;100.00;96630.63;5088504;28;20028;-59
2023/03/09 00:06:47;;;;;;;75.15;31.35;;;;;;;3.31;100.00;96625.03;5075689;28;20505;-59
2023/03/09 00:09:13;;;;;;;70.05;30.27;;;;;;;3.29;100.00;96632.44;5079296;28;20020;-59
2023/03/09 00:11:40;;;;;;;81.90;32.10;;;;;;;3.26;100.00;96632.19;5057739;28;20027;-59
2023/03/09 00:14:06;;;;;;;65.10;29.17;;;;;;;3.23;100.00;96639.56;5077897;28;20044;-58
2023/03/09 00:16:31;;;;;;;73.97;31.58;;;;;;;3.28;100.00;96638.03;5078276;28;20043;-59
2023/03/09 00:18:57;;;;;;;76.47;31.85;;;;;;;3.27;100.00;96639.06;5089709;28;20032;-59
2023/03/09 00:21:40;;;;;;;69.35;31.70;;;;;;;3.25;100.00;96652.56;5088429;28;20318;-59
2023/03/09 00:24:13;;;;;;;60.70;28.20;;;;;;;3.23;100.00;96647.53;5077831;28;20040;-59
2023/03/09 00:26:40;;;;;;;72.50;28.80;;;;;;;3.15;100.00;96642.72;5072968;28;20037;-59
2023/03/09 00:29:07;;;;;;;62.95;28.52;;;;;;;3.27;100.00;96639.06;5073196;28;20067;-59
2023/03/09 00:31:32;;;;;;;64.03;29.02;;;;;;;3.24;100.00;96640.38;5070696;28;20036;-60
2023/03/09 00:33:58;;;;;;;66.13;29.38;;;;;;;3.19;100.00;96635.84;5081259;28;20082;-60
2023/03/09 00:36:24;;;;;;;50.10;23.38;;;;;;;3.55;100.00;96635.19;5057780;28;20153;-60
2023/03/09 00:38:53;;;;;;;60.13;23.65;;;;;;;3.96;100.00;96630.78;5087001;28;20027;-59
2023/03/09 00:41:19;;;;;;;51.23;22.80;;;;;;;4.00;100.00;96621.25;5085423;28;20035;-59
2023/03/09 00:43:45;;;;;;;69.50;27.42;;;;;;;3.86;100.00;96628.91;5073049;28;20086;-59
2023/03/09 00:46:11;;;;;;;68.03;30.00;;;;;;;3.65;100.00;96620.13;5079022;28;20028;-59
2023/03/09 00:48:36;;;;;;;55.97;25.42;;;;;;;3.98;100.00;96618.06;5087562;28;20100;-59
2023/03/09 00:51:02;;;;;;;47.15;22.25;;;;;;;4.07;100.00;96621.00;5064716;28;20463;-59
2023/03/09 00:53:27;;;;;;;43.00;20.02;;;;;;;4.15;100.00;96627.63;5080281;28;20028;-59
2023/03/09 00:55:53;;;;;;;28.55;12.75;;;;;;;4.78;100.00;96638.72;5076077;28;20036;-60
2023/03/09 00:58:18;;;;;;;30.63;12.82;;;;;;;4.88;100.00;96636.03;5083209;28;20406;-60
2023/03/09 01:00:44;;;;;;;21.58;9.40;;;;;;;5.09;100.00;96647.44;5069158;28;20028;-59
2023/03/09 01:03:09;;;;;;;19.20;8.38;;;;;;;5.36;100.00;96655.00;5081820;28;20402;-61
2023/03/09 01:05:36;;;;;;;13.57;6.20;;;;;;;5.48;100.00;96653.91;5079124;28;20036;-59
2023/03/09 01:08:01;;;;;;;8.32;4.50;;;;;;;5.70;100.00;96658.88;5054870;28;20032;-59
2023/03/09 01:10:27;;;;;;;9.70;4.75;;;;;;;5.87;100.00;96666.50;5074706;28;20508;-59
2023/03/09 01:12:54;;;;;;;8.10;3.65;;;;;;;5.98;100.00;96668.06;5081862;28;20048;-60
2023/03/09 01:15:20;;;;;;;10.43;3.58;;;;;;;5.98;100.00;96674.16;5085375;28;20040;-59
2023/03/09 01:17:47;;;;;;;12.98;4.50;;;;;;;6.08;100.00;96673.31;5095780;28;20027;-59
2023/03/09 01:20:13;;;;;;;12.23;4.63;;;;;;;6.00;100.00;96685.31;5084228;28;20028;-59
2023/03/09 01:22:38;;;;;;;8.25;4.30;;;;;;;6.04;100.00;96690.88;5077065;28;20385;-60
2023/03/09 01:25:05;;;;;;;9.10;3.90;;;;;;;6.24;100.00;96680.13;5079822;28;20032;-59
2023/03/09 01:27:30;;;;;;;6.25;3.03;;;;;;;6.35;100.00;96658.78;5055878;28;20291;-59
2023/03/09 01:29:55;;;;;;;5.20;2.50;;;;;;;6.42;100.00;96662.69;5081382;28;20514;-59
2023/03/09 01:32:21;;;;;;;5.53;2.25;;;;;;;6.63;100.00;96650.00;5094716;28;20019;-59
2023/03/09 01:34:46;;;;;;;3.10;1.92;;;;;;;6.68;100.00;96655.28;5076533;28;20501;-60
2023/03/09 01:37:12;;;;;;;4.55;2.10;;;;;;;6.60;100.00;96673.75;5081480;28;20378;-59
2023/03/09 01:39:37;;;;;;;5.55;1.90;;;;;;;6.60;100.00;96684.38;5077276;28;20033;-60
2023/03/09 01:42:02;;;;;;;4.30;2.10;;;;;;;6.55;100.00;96701.19;5083171;28;20198;-60
2023/03/09 01:44:28;;;;;;;4.47;2.00;;;;;;;6.50;100.00;96698.56;5063963;28;20035;-59
2023/03/09 01:46:56;;;;;;;3.80;1.80;;;;;;;6.51;100.00;96700.13;5080279;28;20042;-60
2023/03/09 01:49:32;;;;;;;6.60;2.50;;;;;;;6.49;100.00;96704.97;5096131;28;20443;-59
2023/03/09 01:52:18;;;;;;;4.15;2.10;;;;;;;6.52;100.00;96709.72;5064842;28;20911;-60
2023/03/09 01:55:03;;;;;;;3.35;1.98;;;;;;;6.60;100.00;96719.00;5066780;28;20039;-60
2023/03/09 01:57:57;;;;;;;5.78;1.80;;;;;;;6.73;100.00;96715.69;5088189;28;20115;-59
2023/03/09 02:00:24;;;;;;;6.63;1.67;;;;;;;6.86;100.00;96722.22;5058920;28;20529;-60
2023/03/09 02:03:17;;;;;;;3.33;1.45;;;;;;;6.90;100.00;96725.94;5084478;28;20091;-60
2023/03/09 02:05:44;;;;;;;4.93;1.73;;;;;;;6.84;100.00;96732.34;5080842;28;20032;-60
2023/03/09 02:08:09;;;;;;;3.03;1.50;;;;;;;6.90;100.00;96736.59;5079450;28;20033;-60
2023/03/09 02:11:08;;;;;;;1.90;1.30;;;;;;;7.05;100.00;96741.78;5077272;28;20028;-60
2023/03/09 02:13:37;;;;;;;2.92;1.40;;;;;;;6.99;100.00;96750.91;5032128;28;20123;-60
2023/03/09 02:16:02;;;;;;;2.63;1.60;;;;;;;7.06;100.00;96754.03;5089395;28;20545;-60
2023/03/09 02:18:28;;;;;;;2.83;1.40;;;;;;;7.04;100.00;96756.19;5105092;28;20114;-60
2023/03/09 02:21:45;;;;;;;3.10;1.30;;;;;;;7.13;100.00;96767.78;5085580;28;20565;-60
2023/03/09 02:24:29;;;;;;;3.92;1.50;;;;;;;7.13;100.00;96777.66;5030704;28;20048;-59
2023/03/09 02:27:09;;;;;;;1.38;1.25;;;;;;;7.22;100.00;96788.53;5064543;28;20442;-60
2023/03/09 02:29:34;;;;;;;2.78;1.23;;;;;;;7.08;100.00;96804.34;5087389;28;20079;-60
2023/03/09 02:32:00;;;;;;;2.30;1.30;;;;;;;7.07;100.00;96800.88;5078668;28;20040;-60
2023/03/09 02:34:25;;;;;;;1.65;1.33;;;;;;;7.07;100.00;96813.41;5081040;28;20035;-60
2023/03/09 02:36:51;;;;;;;2.55;1.55;;;;;;;7.05;100.00;96816.34;5082922;28;20020;-60
2023/03/09 02:39:26;;;;;;;1.83;1.35;;;;;;;7.18;100.00;96822.13;5087576;28;20024;-59
2023/03/09 02:41:53;;;;;;;3.20;1.58;;;;;;;7.21;100.00;96825.00;5088175;28;20023;-59
2023/03/09 02:44:19;;;;;;;3.15;1.48;;;;;;;7.21;100.00;96833.00;5062341;28;20111;-60
2023/03/09 02:46:44;;;;;;;3.00;1.40;;;;;;;7.21;100.00;96829.53;5080857;28;20119;-59
2023/03/09 02:49:10;;;;;;;2.83;1.40;;;;;;;7.32;100.00;96831.06;5064717;28;20031;-60
2023/03/09 02:51:35;;;;;;;2.67;1.50;;;;;;;7.23;100.00;96835.41;5079966;28;20467;-59
2023/03/09 02:54:01;;;;;;;3.28;1.70;;;;;;;7.21;100.00;96842.88;5085378;28;20024;-60
2023/03/09 02:56:26;;;;;;;4.07;1.60;;;;;;;7.29;100.00;96847.63;5089544;28;20036;-59
2023/03/09 02:58:51;;;;;;;2.75;1.75;;;;;;;7.31;100.00;96858.78;5073514;28;20028;-60
2023/03/09 03:01:17;;;;;;;6.30;2.10;;;;;;;7.49;100.00;96866.09;5089252;28;20036;-60
2023/03/09 03:03:42;;;;;;;3.95;1.70;;;;;;;7.37;100.00;96879.00;5088567;28;20164;-60
2023/03/09 03:06:08;;;;;;;3.70;1.90;;;;;;;7.28;100.00;96875.31;5084603;28;20474;-60
2023/03/09 03:08:35;;;;;;;3.20;1.90;;;;;;;7.24;100.00;96876.94;5039041;28;20537;-59
2023/03/09 03:11:00;;;;;;;8.98;2.67;;;;;;;7.33;100.00;96877.94;5077594;28;20060;-60
2023/03/09 03:13:26;;;;;;;4.05;2.03;;;;;;;7.35;100.00;96886.47;5083270;28;20047;-60
2023/03/09 03:16:00;;;;;;;6.38;2.13;;;;;;;7.36;100.00;96896.03;5081695;28;20157;-60
2023/03/09 03:18:25;;;;;;;5.75;2.00;;;;;;;7.28;100.00;96901.97;5079464;28;20020;-60
2023/03/09 03:20:50;;;;;;;6.10;2.03;;;;;;;7.28;100.00;96896.63;5082541;28;20089;-60
2023/03/09 03:23:16;;;;;;;2.50;1.60;;;;;;;7.34;100.00;96906.19;5090614;28;20025;-60
2023/03/09 03:25:41;;;;;;;4.85;1.80;;;;;;;7.28;100.00;96909.97;5084850;28;20039;-60
2023/03/09 03:28:07;;;;;;;3.67;2.03;;;;;;;7.26;100.00;96920.91;5089884;28;20028;-60
2023/03/09 03:30:33;;;;;;;3.05;1.90;;;;;;;7.28;100.00;96917.94;5055509;28;20036;-60
2023/03/09 03:32:59;;;;;;;5.75;2.05;;;;;;;7.35;100.00;96929.09;5080920;28;20035;-60
2023/03/09 03:35:24;;;;;;;5.78;1.85;;;;;;;7.33;100.00;96926.69;5086446;28;20020;-60
2023/03/09 03:37:49;;;;;;;3.72;2.00;;;;;;;7.34;100.00;96930.97;5079021;28;20085;-60
2023/03/09 03:40:15;;;;;;;6.38;2.05;;;;;;;7.31;100.00;96941.38;5084283;28;20032;-60
2023/03/09 03:42:40;;;;;;;4.90;2.10;;;;;;;7.30;100.00;96934.47;5076369;28;20490;-60
2023/03/09 03:45:06;;;;;;;3.83;2.00;;;;;;;7.31;100.00;96946.69;5080301;28;20040;-60
2023/03/09 03:47:35;;;;;;;5.78;2.83;;;;;;;7.38;100.00;96939.19;5079863;28;20047;-59
2023/03/09 03:50:00;;;;;;;4.32;2.38;;;;;;;7.27;100.00;96953.66;5082367;28;20422;-60
2023/03/09 03:52:26;;;;;;;4.15;1.98;;;;;;;7.23;100.00;96966.72;5087873;28;20034;-60
2023/03/09 03:54:51;;;;;;;8.48;2.20;;;;;;;7.19;100.00;96957.72;5086236;28;20024;-60
2023/03/09 03:57:17;;;;;;;4.72;2.10;;;;;;;7.20;100.00;96953.97;5082019;28;20033;-60
2023/03/09 03:59:42;;;;;;;5.15;2.00;;;;;;;7.17;100.00;96969.72;5073643;28;20020;-60
2023/03/09 04:02:07;;;;;;;5.13;2.10;;;;;;;7.17;100.00;96975.84;5079783;28;20093;-60
2023/03/09 04:04:33;;;;;;;6.20;2.20;;;;;;;7.13;100.00;96978.25;5066166;28;20032;-60
2023/03/09 04:06:58;;;;;;;4.20;2.42;;;;;;;7.18;100.00;96971.31;5081646;28;21387;-60
2023/03/09 04:09:24;;;;;;;6.00;2.70;;;;;;;7.12;100.00;96982.00;5065748;28;20016;-60
2023/03/09 04:11:49;;;;;;;4.40;2.10;;;;;;;7.15;100.00;96985.97;5090277;28;20019;-60
2023/03/09 04:14:15;;;;;;;5.35;2.47;;;;;;;7.02;100.00;96990.03;5065701;28;20097;-60
2023/03/09 04:16:40;;;;;;;3.55;2.25;;;;;;;6.83;100.00;96989.03;5093776;28;21253;-60
2023/03/09 04:19:06;;;;;;;4.40;2.20;;;;;;;6.80;100.00;96997.59;5085721;28;20485;-60
2023/03/09 04:21:31;;;;;;;4.05;1.80;;;;;;;6.85;100.00;96997.56;5078982;28;20055;-60
2023/03/09 04:23:57;;;;;;;4.50;2.35;;;;;;;6.85;100.00;97005.56;5075077;28;20432;-60
2023/03/09 04:26:22;;;;;;;3.95;1.80;;;;;;;6.95;100.00;96988.75;5083005;28;20031;-60
2023/03/09 04:28:47;;;;;;;5.40;2.05;;;;;;;7.01;100.00;97004.41;5084895;28;20543;-60
2023/03/09 04:31:13;;;;;;;4.75;2.08;;;;;;;7.08;100.00;97014.78;5079662;28;20032;-61
2023/03/09 04:33:42;;;;;;;4.18;1.88;;;;;;;7.10;100.00;97016.09;5079972;28;20029;-60
2023/03/09 04:36:09;;;;;;;4.65;1.73;;;;;;;7.24;100.00;97012.81;5088675;28;20052;-59
2023/03/09 04:38:35;;;;;;;7.72;2.13;;;;;;;7.14;100.00;97013.69;5064692;28;20026;-60
2023/03/09 04:41:00;;;;;;;5.07;2.00;;;;;;;7.13;100.00;97028.06;5074455;28;20029;-60
2023/03/09 04:43:25;;;;;;;7.47;2.85;;;;;;;7.13;100.00;97036.84;5089824;28;20015;-60
2023/03/09 04:45:51;;;;;;;11.20;2.22;;;;;;;7.06;100.00;97041.69;5076539;28;20020;-60
2023/03/09 04:48:16;;;;;;;9.35;2.30;;;;;;;6.94;100.00;97046.53;5079609;28;20052;-60
2023/03/09 04:50:43;;;;;;;7.45;2.05;;;;;;;6.89;100.00;97054.53;5070259;28;20047;-60
2023/03/09 04:53:09;;;;;;;5.10;2.03;;;;;;;6.85;100.00;97064.94;5082442;28;20678;-60
2023/03/09 04:55:36;;;;;;;7.75;2.10;;;;;;;6.94;100.00;97059.84;5087472;28;20037;-60
2023/03/09 04:58:02;;;;;;;14.63;3.38;;;;;;;7.10;100.00;97061.38;5085499;28;20036;-60
2023/03/09 05:00:27;;;;;;;7.57;2.13;;;;;;;7.06;100.00;97064.84;5080572;28;20039;-60
2023/03/09 05:02:53;;;;;;;15.57;2.22;;;;;;;7.09;100.00;97064.31;5081964;28;20029;-61
2023/03/09 05:05:19;;;;;;;11.93;2.40;;;;;;;7.17;100.00;97076.28;5059595;28;20056;-60
2023/03/09 05:07:44;;;;;;;14.25;2.63;;;;;;;7.17;100.00;97076.28;5077879;28;20020;-60
2023/03/09 05:10:10;;;;;;;13.32;2.72;;;;;;;7.14;100.00;97080.28;5077462;28;20028;-60
2023/03/09 05:12:35;;;;;;;17.70;2.50;;;;;;;7.19;100.00;97087.44;5056722;28;20067;-60
2023/03/09 05:15:01;;;;;;;13.80;2.45;;;;;;;7.19;100.00;97084.78;5084170;28;20032;-60
2023/03/09 05:17:27;;;;;;;15.50;2.50;;;;;;;7.11;100.00;97086.13;5081592;28;20054;-60
2023/03/09 05:19:52;;;;;;;12.65;2.53;;;;;;;7.00;100.00;97082.72;5070814;28;20103;-60
2023/03/09 05:22:18;;;;;;;14.75;2.92;;;;;;;6.88;100.00;97095.53;5078294;28;20137;-60
2023/03/09 05:24:43;;;;;;;9.45;3.03;;;;;;;6.80;100.00;97093.44;5077382;28;20358;-60
2023/03/09 05:27:09;;;;;;;10.52;2.42;;;;;;;6.82;100.00;97093.97;5078849;28;20028;-60
2023/03/09 05:29:34;;;;;;;14.30;3.85;;;;;;;6.74;100.00;97094.50;5063214;28;20113;-60
2023/03/09 05:32:00;;;;;;;13.52;2.25;;;;;;;6.75;100.00;97090.78;5076808;28;20029;-61
2023/03/09 05:34:25;;;;;;;8.75;1.92;;;;;;;6.74;100.00;97092.66;5081900;28;20315;-61
2023/03/09 05:36:51;;;;;;;13.80;2.78;;;;;;;6.75;100.00;97096.13;5084140;28;20024;-59
2023/03/09 05:39:16;;;;;;;12.27;2.47;;;;;;;6.78;100.00;97101.69;5073559;28;20451;-61
2023/03/09 05:41:41;;;;;;;13.10;2.55;;;;;;;6.76;100.00;97105.69;5085115;28;20028;-59
2023/03/09 05:44:07;;;;;;;15.73;3.30;;;;;;;6.78;100.00;97106.22;5083543;28;20146;-59
2023/03/09 05:46:32;;;;;;;21.92;2.97;;;;;;;6.78;100.00;97100.88;5085855;28;20024;-59
2023/03/09 05:48:58;;;;;;;16.48;2.60;;;;;;;6.79;100.00;97099.81;5074972;28;20055;-59
2023/03/09 05:51:23;;;;;;;13.65;2.78;;;;;;;6.80;100.00;97104.88;5076463;28;20035;-59
2023/03/09 05:53:49;;;;;;;19.35;4.00;;;;;;;6.89;100.00;97105.94;5083506;28;20468;-59
2023/03/09 05:56:14;;;;;;;34.50;9.43;;;;;;;6.80;100.00;97112.06;5090749;28;20367;-60
2023/03/09 05:58:39;;;;;;;32.13;7.85;;;;;;;6.81;100.00;97119.00;5079306;28;20069;-61
2023/03/09 06:01:05;;;;;;;17.75;4.15;;;;;;;6.79;100.00;97123.78;5082718;28;20036;-59
2023/03/09 06:03:30;;;;;;;19.13;3.33;;;;;;;6.83;100.00;97130.16;5050630;28;20039;-60
2023/03/09 06:06:00;;;;;;;15.77;2.70;;;;;;;6.85;100.00;97136.03;5091072;28;20029;-60
2023/03/09 06:08:26;;;;;;;16.50;3.30;;;;;;;6.79;100.00;97129.94;5075904;28;20032;-60
2023/03/09 06:10:52;;;;;;;18.58;3.17;;;;;;;6.83;100.00;97135.50;5086281;28;20028;-60
2023/03/09 06:13:17;;;;;;;11.38;2.58;;;;;;;6.87;100.00;97131.25;5083928;28;20081;-60
2023/03/09 06:15:42;;;;;;;17.25;2.97;;;;;;;6.85;100.00;97134.16;5083040;28;20039;-60
2023/03/09 06:18:08;;;;;;;13.07;2.65;;;;;;;6.88;100.00;97148.81;5076340;28;20028;-59
2023/03/09 06:20:33;;;;;;;21.30;4.05;;;;;;;6.88;100.00;97143.47;5082085;28;20028;-60
2023/03/09 06:22:59;;;;;;;13.07;3.03;;;;;;;6.89;100.00;97137.09;5081339;28;20028;-60
2023/03/09 06:25:24;;;;;;;12.48;3.03;;;;;;;6.87;100.00;97142.69;5078448;28;20028;-60
2023/03/09 06:27:50;;;;;;;16.80;5.43;;;;;;;6.90;100.00;97146.66;5078225;28;20104;-60
2023/03/09 06:30:15;;;;;;;13.90;4.70;;;;;;;6.91;100.00;97150.91;5078614;28;20024;-60
2023/03/09 06:32:41;;;;;;;10.15;3.00;;;;;;;6.89;100.00;97145.09;5077738;28;20360;-60
2023/03/09 06:35:07;;;;;;;15.63;4.35;;;;;;;6.94;100.00;97150.41;5082336;28;20021;-60
2023/03/09 06:37:32;;;;;;;18.23;3.65;;;;;;;7.11;100.00;97147.41;5089808;28;20558;-60
2023/03/09 06:39:58;;;;;;;20.25;5.53;;;;;;;7.33;100.00;97152.41;5072507;28;20040;-61
2023/03/09 06:42:23;;;;;;;11.70;3.67;;;;;;;7.50;100.00;97155.56;5081972;28;20016;-60
2023/03/09 06:44:50;;;;;;;12.90;4.15;;;;;;;7.59;100.00;97160.31;5080059;28;20016;-61
2023/03/09 06:47:15;;;;;;;11.45;2.50;;;;;;;7.67;100.00;97170.41;5089376;28;20662;-59
2023/03/09 06:49:42;;;;;;;8.18;3.50;;;;;;;7.73;100.00;97177.31;5079570;28;20035;-59
2023/03/09 06:52:08;;;;;;;9.20;2.33;;;;;;;7.71;100.00;97182.94;5075704;28;20591;-59
2023/03/09 06:54:33;;;;;;;7.25;4.07;;;;;;;8.02;100.00;97181.97;5084851;28;20533;-61
2023/03/09 06:56:58;;;;;;;12.48;2.42;;;;;;;7.87;100.00;97180.97;5088807;28;20040;-58
2023/03/09 06:59:24;;;;;;;12.15;3.08;;;;;;;7.93;100.00;97193.22;5085712;28;20274;-60
2023/03/09 07:01:50;;;;;;;11.98;2.50;;;;;;;7.93;100.00;97198.53;5082848;28;20362;-60
2023/03/09 07:04:17;;;;;;;11.25;3.05;;;;;;;8.06;100.00;97207.03;5081373;28;20043;-61
2023/03/09 07:06:42;;;;;;;7.15;1.85;;;;;;;8.19;100.00;97201.88;5080963;28;21423;-60
2023/03/09 07:09:08;;;;;;;10.20;2.65;;;;;;;8.60;100.00;97211.53;5075216;28;20043;-60
2023/03/09 07:11:33;;;;;;;10.43;2.60;;;;;;;8.35;100.00;97223.94;5080127;28;20028;-59
2023/03/09 07:13:59;;;;;;;11.27;4.20;;;;;;;8.49;100.00;97231.38;5080158;28;20051;-60
2023/03/09 07:16:24;;;;;;;9.80;3.33;;;;;;;8.47;100.00;97228.19;5085883;28;20077;-59
2023/03/09 07:18:50;;;;;;;14.90;3.03;;;;;;;8.20;100.00;97237.38;5081371;28;20417;-60
2023/03/09 07:21:16;;;;;;;11.98;2.95;;;;;;;8.11;100.00;97249.69;5085692;28;20587;-59
2023/03/09 07:23:41;;;;;;;13.40;4.35;;;;;;;8.07;100.00;97254.00;5080095;28;20039;-60
2023/03/09 07:26:07;;;;;;;8.63;3.70;;;;;;;8.06;100.00;97247.03;5082631;28;20024;-60
2023/03/09 07:28:33;;;;;;;8.50;2.67;;;;;;;8.04;100.00;97254.50;5083302;28;20035;-60
2023/03/09 07:30:58;;;;;;;5.65;2.50;;;;;;;8.06;100.00;97255.03;5076815;28;20028;-60
2023/03/09 07:33:24;;;;;;;10.05;2.60;;;;;;;8.30;100.00;97264.00;5089188;28;20023;-60
2023/03/09 07:35:49;;;;;;;5.80;2.10;;;;;;;8.55;100.00;97271.09;5076411;28;20466;-60
2023/03/09 07:38:14;;;;;;;7.22;2.80;;;;;;;9.83;100.00;97269.97;5086014;28;20035;-60
2023/03/09 07:40:40;;;;;;;7.28;2.38;;;;;;;9.72;100.00;97265.81;5086823;28;20028;-60
2023/03/09 07:43:06;;;;;;;6.28;2.13;;;;;;;9.55;100.00;97271.59;5075161;28;20032;-60
2023/03/09 07:45:31;;;;;;;8.20;3.03;;;;;;;9.42;100.00;97272.28;5079211;28;20416;-60
2023/03/09 07:47:57;;;;;;;7.18;2.38;;;;;;;8.88;100.00;97273.28;5086430;28;20485;-59
2023/03/09 07:50:23;;;;;;;10.27;3.40;;;;;;;8.74;100.00;97275.78;5080276;28;20062;-59
2023/03/09 07:52:49;;;;;;;8.50;2.88;;;;;;;8.55;100.00;97281.78;5085712;28;20027;-59
2023/03/09 07:55:15;;;;;;;8.32;2.55;;;;;;;8.23;100.00;97284.06;5085688;28;20029;-59
2023/03/09 07:57:40;;;;;;;7.65;2.38;;;;;;;8.25;100.00;97296.06;5086671;28;20017;-59
2023/03/09 08:00:12;;;;;;;7.32;2.30;;;;;;;8.19;100.00;97294.50;5083513;28;20075;-59
2023/03/09 08:02:40;;;;;;;10.40;2.80;;;;;;;8.21;100.00;97295.00;5073599;28;20020;-59
2023/03/09 08:05:07;;;;;;;8.55;2.70;;;;;;;8.17;100.00;97297.44;5083219;28;20024;-59
2023/03/09 08:07:32;;;;;;;6.95;2.58;;;;;;;8.25;100.00;97308.59;5083109;28;20031;-59
2023/03/09 08:09:58;;;;;;;6.35;2.38;;;;;;;8.30;100.00;97312.03;5080554;28;20379;-59
2023/03/09 08:12:23;;;;;;;6.68;2.65;;;;;;;8.31;100.00;97312.84;5078794;28;20398;-59
2023/03/09 08:14:48;;;;;;;3.88;1.88;;;;;;;8.28;100.00;97319.53;5079469;28;20031;-59
2023/03/09 08:17:14;;;;;;;6.35;2.15;;;;;;;8.42;100.00;97320.56;5075724;28;20025;-59
2023/03/09 08:19:40;;;;;;;8.90;2.40;;;;;;;8.53;100.00;97313.28;5084355;28;20387;-60
2023/03/09 08:22:05;;;;;;;7.47;2.50;;;;;;;8.68;100.00;97317.75;5075673;28;20028;-59
2023/03/09 08:24:31;;;;;;;5.20;2.10;;;;;;;8.69;100.00;97321.22;5081965;28;20537;-58
2023/03/09 08:26:56;;;;;;;6.57;2.72;;;;;;;8.87;100.00;97325.13;5076979;28;20035;-59
2023/03/09 08:29:21;;;;;;;8.00;2.33;;;;;;;8.85;100.00;97334.19;5082887;28;20077;-61
2023/03/09 08:31:47;;;;;;;3.15;1.77;;;;;;;8.84;100.00;97339.84;5081995;28;20020;-61
2023/03/09 08:34:12;;;;;;;5.40;1.92;;;;;;;8.97;100.00;97344.53;5085903;28;20028;-58
2023/03/09 08:36:38;;;;;;;3.78;2.00;;;;;;;9.10;100.00;97348.47;5083470;28;20028;-60
2023/03/09 08:39:03;;;;;;;6.13;2.10;;;;;;;9.09;100.00;97354.09;5079196;28;20028;-60
2023/03/09 08:41:28;;;;;;;6.85;2.28;;;;;;;9.04;100.00;97357.59;5086332;28;20020;-59
2023/03/09 08:43:56;;;;;;;6.68;2.08;;;;;;;9.11;100.00;97360.75;5072883;28;20036;-60
2023/03/09 08:46:21;;;;;;;3.70;2.00;;;;;;;9.23;100.00;97366.53;5080463;28;20316;-60
2023/03/09 08:48:48;;;;;;;3.88;1.90;;;;;;;9.19;100.00;97376.19;5086738;28;20027;-60
2023/03/09 08:51:14;;;;;;;3.17;1.85;;;;;;;9.33;100.00;97375.56;5086896;28;20128;-58
2023/03/09 08:53:39;;;;;;;5.63;1.90;;;;;;;9.33;100.00;97381.69;5085858;28;20097;-61
2023/03/09 08:56:06;;;;;;;5.18;1.90;;;;;;;9.43;100.00;97380.81;5080577;28;20450;-60
2023/03/09 08:58:32;;;;;;;8.88;2.00;;;;;;;9.27;100.00;97383.63;5080481;28;20052;-60
2023/03/09 09:00:59;;;;;;;8.65;2.00;;;;;;;9.29;100.00;97392.16;5094060;28;20119;-60
2023/03/09 09:03:25;;;;;;;3.63;1.83;;;;;;;9.22;100.00;97394.34;5074502;28;20020;-61
2023/03/09 09:05:50;;;;;;;8.90;2.17;;;;;;;9.28;100.00;97395.94;5080405;28;20254;-60
2023/03/09 09:08:16;;;;;;;3.40;1.70;;;;;;;9.25;100.00;97393.78;5081201;28;20035;-60
2023/03/09 09:10:45;;;;;;;6.28;1.88;;;;;;;9.54;100.00;97386.91;5058327;28;20024;-60
2023/03/09 09:13:10;;;;;;;8.18;1.98;;;;;;;9.36;100.00;97401.72;5087100;28;20589;-60
2023/03/09 09:15:37;;;;;;;4.75;1.90;;;;;;;9.53;100.00;97407.47;5078211;28;20026;-59
2023/03/09 09:18:03;;;;;;;5.60;1.77;;;;;;;9.52;100.00;97403.22;5079572;28;20492;-60
2023/03/09 09:20:29;;;;;;;6.05;2.08;;;;;;;9.36;100.00;97404.41;5088111;28;20023;-59
2023/03/09 09:22:54;;;;;;;4.88;1.88;;;;;;;9.31;100.00;97415.13;5058923;28;20032;-59
2023/03/09 09:25:19;;;;;;;5.05;1.98;;;;;;;9.35;100.00;97422.31;5062861;28;20019;-59
2023/03/09 09:27:45;;;;;;;3.35;1.70;;;;;;;9.24;100.00;97437.66;5078374;28;20028;-59
2023/03/09 09:30:11;;;;;;;5.97;1.88;;;;;;;9.25;100.00;97425.88;5058452;28;20048;-59
2023/03/09 09:32:38;;;;;;;3.97;1.58;;;;;;;9.46;100.00;97444.44;5080405;28;20160;-60
2023/03/09 09:35:04;;;;;;;9.20;2.10;;;;;;;9.75;100.00;97428.44;5076428;28;20031;-60
2023/03/09 09:37:30;;;;;;;4.50;1.63;;;;;;;9.87;100.00;97433.44;5071074;28;20050;-59
2023/03/09 09:39:58;;;;;;;4.82;1.65;;;;;;;9.92;100.00;97441.41;5074052;28;20032;-59
2023/03/09 09:42:29;;;;;;;2.80;1.50;;;;;;;9.69;100.00;97448.28;5073086;28;20118;-59
2023/03/09 09:44:54;;;;;;;3.10;1.63;;;;;;;9.88;100.00;97454.56;5075603;28;20035;-60
2023/03/09 09:47:22;;;;;;;2.65;1.67;;;;;;;9.83;100.00;97461.81;5063681;28;20040;-59
2023/03/09 09:49:48;;;;;;;3.83;1.65;;;;;;;9.77;100.00;97465.63;5043682;28;20067;-59
2023/03/09 09:53:06;;;;;;;7.82;1.92;;;;;;;9.91;100.00;97463.91;5056813;28;20071;-59
2023/03/09 09:55:33;;;;;;;5.47;1.80;;;;;;;10.11;100.00;97471.75;5043768;28;20139;-59
2023/03/09 09:58:08;;;;;;;7.97;2.17;;;;;;;10.18;100.00;97481.31;5053397;28;20079;-60
2023/03/09 10:00:42;;;;;;;7.45;2.08;;;;;;;10.24;100.00;97480.19;5059602;28;20418;-60
2023/03/09 10:03:23;;;;;;;5.28;1.70;;;;;;;9.96;100.00;97479.91;5063889;28;20032;-60
2023/03/09 10:06:13;;;;;;;5.38;1.90;;;;;;;9.94;100.00;97482.06;5083238;28;20348;-59
2023/03/09 10:08:41;;;;;;;5.07;2.00;;;;;;;9.98;100.00;97493.78;5076399;28;20071;-59
2023/03/09 10:11:25;;;;;;;9.02;2.25;;;;;;;9.92;100.00;97486.91;5090858;28;20135;-60
2023/03/09 10:14:16;;;;;;;6.70;2.13;;;;;;;10.22;100.00;97485.03;5077105;28;20076;-59
2023/03/09 10:16:44;;;;;;;5.75;2.50;;;;;;;10.13;100.00;97491.00;5070603;28;20050;-59
2023/03/09 10:19:17;;;;;;;6.57;2.00;;;;;;;10.11;100.00;97490.47;5066814;28;20051;-59
2023/03/09 10:21:53;;;;;;;17.08;2.22;;;;;;;10.28;100.00;97494.63;5061272;28;20020;-59
2023/03/09 10:24:22;;;;;;;4.18;2.00;;;;;;;10.37;100.00;97492.94;5064232;28;20659;-60
2023/03/09 10:27:14;;;;;;;8.15;2.25;;;;;;;10.62;100.00;97496.44;5079455;28;20470;-60
2023/03/09 10:29:48;;;;;;;4.45;2.05;;;;;;;10.62;100.00;97502.59;5067794;28;20020;-59
2023/03/09 10:32:32;;;;;;;8.98;3.67;;;;;;;10.67;100.00;97509.78;5088736;28;20036;-59
2023/03/09 10:35:03;;;;;;;14.88;6.78;;;;;;;10.85;100.00;97519.75;5081560;28;20020;-59
2023/03/09 10:37:34;;;;;;;4.75;2.05;;;;;;;10.61;100.00;97516.25;5079406;28;20549;-60
2023/03/09 10:40:05;;;;;;;27.70;9.50;;;;;;;10.76;100.00;97521.47;5078200;28;20028;-59
2023/03/09 10:42:33;;;;;;;4.30;1.63;;;;;;;10.89;100.00;97518.09;5067986;28;20031;-59
2023/03/09 10:45:27;;;;;;;4.35;1.60;;;;;;;11.24;100.00;97521.44;5062350;28;20028;-60
2023/03/09 10:47:56;;;;;;;6.18;1.70;;;;;;;11.39;100.00;97515.06;5083670;28;20506;-59
2023/03/09 10:50:53;;;;;;;8.55;3.20;;;;;;;11.74;100.00;97532.53;5084178;28;20115;-60
2023/03/09 10:53:37;;;;;;;6.70;2.08;;;;;;;11.39;99.37;97525.81;5084694;28;20059;-59
2023/03/09 10:56:13;;;;;;;6.68;2.70;;;;;;;11.51;100.00;97530.75;5081853;28;20435;-59
2023/03/09 10:58:39;;;;;;;4.97;2.60;;;;;;;11.85;99.74;97533.97;5076845;28;20033;-59
2023/03/09 11:01:11;;;;;;;5.57;2.80;;;;;;;11.69;100.00;97535.31;5078002;28;20375;-59
2023/03/09 11:03:37;;;;;;;7.55;2.60;;;;;;;11.44;100.00;97534.56;5076214;28;20029;-59
2023/03/09 11:06:11;;;;;;;7.05;3.38;;;;;;;11.99;98.37;97536.75;5089570;28;20036;-60
2023/03/09 11:08:36;;;;;;;7.88;3.60;;;;;;;12.03;95.58;97536.97;5078635;28;20036;-60
2023/03/09 11:11:04;;;;;;;9.77;2.67;;;;;;;11.71;96.81;97535.81;5056528;28;20080;-59
2023/03/09 11:13:29;;;;;;;4.07;1.48;;;;;;;11.29;98.99;97544.72;5052341;28;20045;-59
2023/03/09 11:16:28;;;;;;;4.15;1.80;;;;;;;11.30;100.00;97547.09;5083821;28;20028;-59
2023/03/09 11:19:09;;;;;;;6.18;1.92;;;;;;;11.16;100.00;97555.06;5058352;28;20501;-60
2023/03/09 11:21:35;;;;;;;4.20;1.60;;;;;;;11.15;100.00;97544.59;5080524;28;20327;-60
2023/03/09 11:24:01;;;;;;;5.75;1.70;;;;;;;11.17;100.00;97545.13;5074937;28;20106;-60
2023/03/09 11:26:42;;;;;;;7.03;2.03;;;;;;;11.02;100.00;97541.53;5062344;28;20036;-59
2023/03/09 11:29:17;;;;;;;;;;;;;;;11.34;99.99;97540.06;5059263;28;20471;-59
2023/03/09 11:31:43;;;;;;;4.57;2.00;;;;;;;11.45;99.44;97549.56;5054219;28;19920;-59
2023/03/09 11:34:26;;;;;;;7.50;1.85;;;;;;;11.14;100.00;97549.19;5082875;28;20110;-59